Skip Navigation Links
NOAA logo - Click to go to the NOAA homepage
NOAA's National Weather Service
Alaska Aviation Weather Unit
  NWS logo - Click to go to the NWS homepage
Left Navbar Graphic     19 AKDT = 03 GMT

   
NOAA is celebrating 200 years of science, service, and stewardship. Visit the NOAA 200th celebration Web site to learn more.
USA.gov is the U.S. Government's official Web portal to all Federal, state and local government Web resources and services.
Facebook
NWS on Facebook

Important Change Regarding the AAWU Web Presence

 

Over the last several months, the AAWU has been working to navigate its webpages to a nationally supported server. Security, as well as other needs, have necessitated the change.  In the process, we have made an effort to enhance the functionality of our website, as well as some of our products. As of June 20, 2017, aawu.arh.noaa.gov will be discontinued. The new AAWU web address is weather.gov/aawu. It is now live and will run in-parallel with the old site until it is discontinued. Please send any feedback or questions regarding the new webpages to nws.ar.aawu.webauthors@noaa.gov.  Thank you for your patience during this time of transition.
AAWU Home :: Display TAF Add Bookmark
SPECI PAMK 242145Z AUTO 24015KT 10SM SCT015 BKN060 OVC070 06/02 A2957
     RMK AO2 PK WND 23029/2101 $=

METAR PAMK 242156Z AUTO 24022G25KT 10SM SCT015 BKN044 OVC075 06/02
 A2957 RMK AO2 PK WND 23029/2101 SLP018 T00610022 $=

SPECI PAMK 242231Z AUTO 23023G27KT 10SM FEW012 BKN017 OVC037 05/02 A2959
     RMK AO2 PK WND 23027/2231 $=

METAR PAMK 242256Z AUTO 25018G23KT 10SM -RA BKN012 BKN018 OVC038 06/02
     A2959 RMK AO2 PK WND 24028/2234 RAB43 SLP025 P0000 T00560022
     $=

SPECI PAMK 242337Z AUTO 25017KT 10SM BKN014 BKN024 BKN033 06/02 A2961
     RMK AO2 PK WND 25028/2314 RAE01B24E35 P0000 $=

METAR PAMK 242356Z AUTO 26016G22KT 10SM SCT014 BKN019 BKN027 05/02 A2961
     RMK AO2 PK WND 25028/2314 RAE01B24E35 SLP031 P0000 60002
     T00500017 10061 20044 51020 $=

SPECI PAMK 250013Z AUTO 24015KT 10SM SCT014 SCT046 BKN055 06/01 A2962
     RMK AO2 $=

METAR PAMK 250056Z AUTO 24014KT 10SM -RA FEW018 BKN035 OVC065 06/01
 A2962 RMK AO2 RAB42 SLP034 P0000 T00560011 $=

METAR PAMK 250156Z AUTO 24012KT 10SM SCT029 BKN034 BKN047 07/M01 A2962
     RMK AO2 RAE0057 SLP035 T00671006 $=

SPECI PAMK 250208Z AUTO 23014KT 10SM BKN029 BKN036 OVC050 07/01 A2963
     RMK AO2 $=

SPECI PAMK 250244Z AUTO 26015KT 9SM BKN013 BKN019 OVC032 04/02 A2964 RMK
     AO2 RAB17E40 P0000 $=

METAR PAMK 250256Z AUTO 26014G21KT 10SM BKN013 06/02 A2965 RMK AO2
     RAB17E40 SLP043 P0000 60000 T00560022 53012 $=


NOAA's National Weather Service
Alaska Aviation Weather Unit
6930 Sand Lake Road
Anchorage, AK 99502-1845
Disclaimer
Credits
Glossary
Privacy Policy
About Us
Career Opportunities
Contact AAWU Internet Services Site last modified: April, 17th 2012